Time;durP1;ratioP1;P1;durP2;ratioP2;P2;SDS_P1;SDS_P2;PMS_P1;PMS_P2;Temp;Humidity;BMP_temperature;BMP_pressure;BME280_temperature;BME280_humidity;BME280_pressure;Samples;Min_cycle;Max_cycle;Signal;HPM_P1;HPM_P2
2022/11/15 00:00:06;;;;;;;891.05;828.55;;;;;;;8.66;69.33;101065.38;688719;28;62144;-66
2022/11/15 00:00:48;;;;;;;898.47;835.70;;;;;;;8.66;68.95;101063.50;686022;28;138475;-67
2022/11/15 00:01:27;;;;;;;889.40;826.95;;;;;;;8.65;68.83;101060.97;686363;28;136100;-66
2022/11/15 00:02:08;;;;;;;890.67;828.22;;;;;;;8.63;68.92;101058.44;686209;28;137693;-65
2022/11/15 00:02:49;;;;;;;911.90;848.60;;;;;;;8.63;69.10;101063.00;686002;28;138344;-66
2022/11/15 00:03:29;;;;;;;908.33;845.03;;;;;;;8.60;69.02;101058.75;685825;28;136010;-66
2022/11/15 00:04:10;;;;;;;903.42;840.42;;;;;;;8.61;68.98;101059.63;685555;28;157247;-66
2022/11/15 00:04:50;;;;;;;916.00;852.70;;;;;;;8.64;69.33;101064.69;686192;28;137931;-66
2022/11/15 00:05:34;;;;;;;890.17;827.90;;;;;;;8.63;68.84;101054.91;686216;28;137532;-66
2022/11/15 00:06:15;;;;;;;905.97;843.13;;;;;;;8.64;68.82;101062.00;686384;28;137189;-66
2022/11/15 00:06:54;;;;;;;910.55;847.40;;;;;;;8.64;68.74;101064.69;683212;28;135985;-67
2022/11/15 00:07:34;;;;;;;876.75;814.78;;;;;;;8.64;68.52;101060.16;683536;28;137665;-66
2022/11/15 00:08:15;;;;;;;896.25;833.55;;;;;;;8.65;68.45;101063.66;684577;28;137406;-66
2022/11/15 00:08:57;;;;;;;878.50;816.30;;;;;;;8.63;68.28;101063.00;683884;28;180259;-67
2022/11/15 00:09:43;;;;;;;910.10;846.97;;;;;;;8.61;68.04;101067.69;686024;28;62247;-66
2022/11/15 00:10:23;;;;;;;905.22;842.30;;;;;;;8.58;68.17;101060.75;683626;28;135835;-66
2022/11/15 00:11:03;;;;;;;889.25;826.72;;;;;;;8.57;67.78;101067.16;683642;28;135992;-66
2022/11/15 00:11:44;;;;;;;902.67;839.83;;;;;;;8.51;67.74;101056.16;686093;28;137360;-65
2022/11/15 00:12:24;;;;;;;888.35;826.00;;;;;;;8.48;67.49;101060.03;686357;28;137528;-64
2022/11/15 00:13:05;;;;;;;909.33;846.38;;;;;;;8.45;67.68;101065.72;686302;28;135966;-65
2022/11/15 00:13:46;;;;;;;893.90;831.33;;;;;;;8.42;67.83;101061.44;685657;28;137730;-66
2022/11/15 00:14:26;;;;;;;896.08;833.42;;;;;;;8.39;67.66;101059.06;686416;28;135980;-66
2022/11/15 00:15:09;;;;;;;903.10;840.20;;;;;;;8.37;68.09;101061.06;686284;28;137405;-65
2022/11/15 00:15:49;;;;;;;898.08;835.30;;;;;;;8.33;67.81;101058.84;686140;28;135993;-65
2022/11/15 00:16:30;;;;;;;902.33;839.47;;;;;;;8.30;68.04;101062.69;685252;28;158857;-66
2022/11/15 00:17:10;;;;;;;897.35;834.35;;;;;;;8.28;67.85;101060.16;685495;28;137421;-65
2022/11/15 00:17:52;;;;;;;905.60;842.65;;;;;;;8.29;68.09;101060.97;686013;28;136023;-64
2022/11/15 00:18:32;;;;;;;911.25;848.08;;;;;;;8.25;67.97;101057.75;683248;28;137239;-66
2022/11/15 00:19:12;;;;;;;893.17;830.53;;;;;;;8.23;67.98;101057.09;682900;28;157115;-65
2022/11/15 00:19:53;;;;;;;900.78;838.03;;;;;;;8.23;67.83;101053.56;685162;28;137283;-63
2022/11/15 00:20:33;;;;;;;900.65;837.85;;;;;;;8.21;68.29;101059.09;685766;28;137621;-65
2022/11/15 00:21:15;;;;;;;894.55;831.90;;;;;;;8.17;68.01;101057.69;686196;28;135962;-66
2022/11/15 00:21:55;;;;;;;894.67;831.97;;;;;;;8.16;68.32;101052.47;686242;28;137718;-66
2022/11/15 00:22:35;;;;;;;901.65;838.80;;;;;;;8.15;68.14;101053.44;686257;28;137494;-65
2022/11/15 00:23:16;;;;;;;890.67;828.17;;;;;;;8.11;68.04;101051.06;682920;28;160544;-65
2022/11/15 00:23:56;;;;;;;885.42;823.08;;;;;;;8.11;68.09;101050.22;682804;28;157705;-65
2022/11/15 00:24:37;;;;;;;905.38;842.45;;;;;;;8.04;67.95;101039.25;684720;28;136007;-65
2022/11/15 00:25:16;;;;;;;904.53;841.53;;;;;;;8.09;68.37;101049.56;685296;28;160185;-64
2022/11/15 00:25:57;;;;;;;886.60;824.13;;;;;;;8.04;68.18;101043.75;686308;28;137510;-65
2022/11/15 00:26:37;;;;;;;890.92;828.42;;;;;;;8.05;68.25;101040.91;686170;28;137450;-66
2022/11/15 00:27:18;;;;;;;901.25;838.15;;;;;;;8.06;68.40;101050.69;686119;28;137257;-65
2022/11/15 00:27:59;;;;;;;897.40;834.70;;;;;;;8.05;68.06;101053.53;686196;28;137178;-66
2022/11/15 00:28:39;;;;;;;900.25;837.42;;;;;;;7.99;67.97;101036.16;685846;28;135630;-66
2022/11/15 00:29:21;;;;;;;871.65;809.60;;;;;;;8.00;68.40;101047.78;686157;28;137541;-65
2022/11/15 00:30:01;;;;;;;902.88;839.92;;;;;;;7.99;68.51;101043.38;682786;28;158910;-65
2022/11/15 00:30:40;;;;;;;888.92;826.45;;;;;;;7.99;68.46;101046.06;683492;28;136083;-65
2022/11/15 00:31:21;;;;;;;891.97;829.45;;;;;;;7.99;68.69;101043.38;683654;28;137784;-65
2022/11/15 00:32:01;;;;;;;906.25;843.15;;;;;;;7.92;68.58;101035.91;683460;28;136870;-65
2022/11/15 00:32:40;;;;;;;908.72;845.63;;;;;;;7.94;68.73;101041.16;684311;28;136354;-65
2022/11/15 00:33:23;;;;;;;900.80;837.88;;;;;;;7.93;68.68;101043.00;686299;28;137707;-66
2022/11/15 00:34:02;;;;;;;907.10;844.05;;;;;;;7.94;69.33;101041.16;684681;28;179149;-65
2022/11/15 00:34:42;;;;;;;900.90;838.10;;;;;;;7.93;69.42;101037.63;685141;28;160623;-64
2022/11/15 00:35:23;;;;;;;902.60;839.60;;;;;;;7.93;69.58;101031.38;686060;28;137539;-65
2022/11/15 00:36:05;;;;;;;878.83;816.58;;;;;;;7.94;69.26;101041.97;686293;28;135978;-64
2022/11/15 00:36:44;;;;;;;894.92;832.15;;;;;;;7.96;69.07;101038.31;685994;28;137474;-65
2022/11/15 00:37:25;;;;;;;890.25;827.45;;;;;;;7.94;69.30;101038.47;686177;28;135980;-65
2022/11/15 00:38:05;;;;;;;908.88;845.75;;;;;;;7.92;68.84;101037.78;683576;28;137509;-64
2022/11/15 00:38:46;;;;;;;900.22;837.33;;;;;;;7.92;68.69;101038.63;683452;28;137373;-65
2022/11/15 00:39:26;;;;;;;902.17;839.28;;;;;;;7.92;68.69;101040.47;686334;28;137704;-65
2022/11/15 00:40:07;;;;;;;899.60;836.67;;;;;;;7.87;68.62;101035.53;685428;28;161253;-66
2022/11/15 00:40:47;;;;;;;920.50;857.03;;;;;;;7.87;68.88;101034.72;685956;28;137544;-65
2022/11/15 00:41:27;;;;;;;891.30;828.88;;;;;;;7.87;69.48;101030.16;686360;28;135956;-66
2022/11/15 00:42:07;;;;;;;901.75;838.90;;;;;;;7.84;68.97;101021.56;686253;28;137700;-64
2022/11/15 00:42:47;;;;;;;888.53;826.05;;;;;;;7.89;69.03;101036.22;686232;28;136012;-65
2022/11/15 00:43:27;;;;;;;901.35;838.47;;;;;;;7.91;68.74;101036.91;686270;28;137700;-66
2022/11/15 00:44:08;;;;;;;902.88;839.95;;;;;;;7.90;68.91;101029.03;685383;28;157944;-65
2022/11/15 00:44:47;;;;;;;894.03;831.25;;;;;;;7.89;69.16;101033.53;686140;28;137683;-63
2022/11/15 00:45:35;;;;;;;893.58;830.97;;;;;;;7.90;68.51;101027.16;688565;28;61288;-65
2022/11/15 00:46:15;;;;;;;880.83;818.60;;;;;;;7.89;68.40;101024.63;686345;28;135687;-65
2022/11/15 00:46:55;;;;;;;906.13;842.97;;;;;;;7.87;68.62;101026.63;683870;28;137666;-63
2022/11/15 00:47:35;;;;;;;904.03;841.00;;;;;;;7.86;68.35;101030.31;683581;28;135980;-65
2022/11/15 00:48:15;;;;;;;877.50;815.42;;;;;;;7.87;68.69;101021.25;682781;28;161081;-64
2022/11/15 00:48:57;;;;;;;891.30;828.80;;;;;;;7.86;68.55;101027.63;683798;28;156248;-64
2022/11/15 00:49:37;;;;;;;895.08;832.40;;;;;;;7.86;68.42;101033.00;685355;28;160367;-65
2022/11/15 00:50:16;;;;;;;899.35;836.53;;;;;;;7.82;68.57;101024.41;683582;28;137472;-64
2022/11/15 00:50:58;;;;;;;895.42;832.60;;;;;;;7.81;68.56;101024.56;682785;28;160945;-66
2022/11/15 00:51:37;;;;;;;890.03;827.47;;;;;;;7.83;68.65;101028.75;682672;28;159008;-65
2022/11/15 00:52:19;;;;;;;884.45;822.13;;;;;;;7.82;69.15;101029.78;685308;28;137699;-64
2022/11/15 00:52:58;;;;;;;881.50;819.17;;;;;;;7.82;69.21;101018.16;685402;28;160618;-65
2022/11/15 00:53:39;;;;;;;898.05;835.25;;;;;;;7.83;69.28;101028.75;685722;28;136218;-65
2022/11/15 00:54:19;;;;;;;889.70;827.20;;;;;;;7.85;69.16;101029.47;683650;28;137573;-64
2022/11/15 00:54:59;;;;;;;899.65;836.85;;;;;;;7.86;69.13;101031.16;683533;28;135974;-64
2022/11/15 00:55:40;;;;;;;890.78;828.28;;;;;;;7.86;68.76;101028.47;683417;28;137755;-65
2022/11/15 00:56:19;;;;;;;903.17;840.20;;;;;;;7.84;68.53;101019.72;683555;28;137488;-65
2022/11/15 00:57:00;;;;;;;892.63;829.72;;;;;;;7.83;68.19;101028.75;683092;28;135954;-65
2022/11/15 00:57:39;;;;;;;901.92;838.88;;;;;;;7.80;68.17;101023.69;683322;28;137841;-64
2022/11/15 00:58:19;;;;;;;891.95;829.42;;;;;;;7.73;68.52;101012.72;683562;28;137486;-64
2022/11/15 00:59:00;;;;;;;893.30;830.65;;;;;;;7.81;68.40;101016.50;682724;28;157314;-64
2022/11/15 00:59:39;;;;;;;885.35;822.88;;;;;;;7.78;68.47;101023.00;682541;28;161796;-65
2022/11/15 01:00:19;;;;;;;902.47;839.45;;;;;;;7.78;68.55;101019.47;685221;28;137254;-64
2022/11/15 01:01:07;;;;;;;892.67;830.00;;;;;;;7.78;69.04;101017.63;686135;28;137250;-64
2022/11/15 01:01:46;;;;;;;902.65;839.78;;;;;;;7.78;69.04;101014.94;685584;28;137589;-64
2022/11/15 01:02:27;;;;;;;895.88;833.35;;;;;;;7.80;69.26;101022.84;683635;28;137509;-65
2022/11/15 01:03:07;;;;;;;901.55;838.63;;;;;;;7.80;69.35;101025.53;683686;28;134318;-64
2022/11/15 01:03:48;;;;;;;920.05;856.58;;;;;;;7.79;69.03;101018.47;683013;28;135927;-65
2022/11/15 01:04:29;;;;;;;900.70;837.78;;;;;;;7.78;69.07;101023.00;683498;28;136045;-65
2022/11/15 01:05:09;;;;;;;906.42;843.40;;;;;;;7.79;69.08;101013.94;684842;28;135911;-63
2022/11/15 01:05:50;;;;;;;897.70;834.78;;;;;;;7.80;69.64;101018.31;685232;28;160596;-64
2022/11/15 01:06:29;;;;;;;897.25;834.47;;;;;;;7.82;69.79;101020.84;686158;28;138460;-66
2022/11/15 01:07:09;;;;;;;892.17;829.30;;;;;;;7.82;69.96;101016.34;685629;28;135985;-65
2022/11/15 01:07:52;;;;;;;896.65;833.92;;;;;;;7.84;69.60;101013.50;686173;28;135980;-63
2022/11/15 01:08:32;;;;;;;907.20;844.15;;;;;;;7.84;69.59;101017.03;686195;28;137268;-64
2022/11/15 01:09:14;;;;;;;893.78;831.22;;;;;;;7.85;69.49;101007.97;682844;28;157269;-64
2022/11/15 01:09:54;;;;;;;902.03;839.22;;;;;;;7.84;69.77;101010.81;683450;28;135993;-65
2022/11/15 01:10:34;;;;;;;902.40;839.50;;;;;;;7.86;69.23;101015.00;686048;28;137973;-65
2022/11/15 01:11:14;;;;;;;879.90;817.65;;;;;;;7.83;68.59;101015.31;685878;28;136798;-65
2022/11/15 01:11:54;;;;;;;896.45;833.67;;;;;;;7.81;68.68;101016.50;684976;28;161027;-65
2022/11/15 01:12:34;;;;;;;888.22;825.70;;;;;;;7.82;69.10;101020.84;685539;28;138344;-65
2022/11/15 01:13:15;;;;;;;905.10;842.05;;;;;;;7.82;69.21;101016.34;684912;28;136004;-65
2022/11/15 01:13:55;;;;;;;898.58;835.65;;;;;;;7.80;69.42;101017.47;685224;28;157782;-65
2022/11/15 01:14:35;;;;;;;882.53;820.17;;;;;;;7.83;69.33;101014.47;687090;28;108160;-64
2022/11/15 01:15:16;;;;;;;894.33;831.63;;;;;;;7.82;69.78;101016.34;685277;28;160891;-65
2022/11/15 01:15:56;;;;;;;912.47;849.22;;;;;;;7.86;69.69;101017.69;682622;28;160465;-65
2022/11/15 01:16:36;;;;;;;902.05;839.13;;;;;;;7.84;69.72;101011.66;685477;28;137335;-65
2022/11/15 01:17:16;;;;;;;914.15;850.55;;;;;;;7.85;69.85;101016.03;685994;28;137700;-65
2022/11/15 01:17:56;;;;;;;919.38;855.88;;;;;;;7.83;69.89;101011.78;686073;28;137701;-64
2022/11/15 01:18:37;;;;;;;895.63;832.83;;;;;;;7.86;69.71;101012.31;684861;28;160563;-65
2022/11/15 01:19:16;;;;;;;896.28;833.47;;;;;;;7.87;69.59;101011.34;685520;28;160175;-64
2022/11/15 01:19:58;;;;;;;907.33;844.20;;;;;;;7.87;69.58;101010.50;686063;28;136820;-64
2022/11/15 01:20:40;;;;;;;898.22;835.33;;;;;;;7.84;69.14;101006.25;685854;28;137239;-64
2022/11/15 01:21:22;;;;;;;892.00;829.38;;;;;;;7.82;69.17;101012.78;685639;28;116772;-64
2022/11/15 01:22:02;;;;;;;916.83;853.30;;;;;;;7.81;69.14;101011.13;683462;28;135713;-64
2022/11/15 01:22:41;;;;;;;887.85;825.25;;;;;;;7.81;69.46;101009.25;683043;28;137702;-65
2022/11/15 01:23:22;;;;;;;892.60;829.85;;;;;;;7.82;69.50;101012.78;683185;28;137479;-65
2022/11/15 01:24:02;;;;;;;879.90;817.47;;;;;;;7.82;69.48;101010.09;681819;28;179144;-65
2022/11/15 01:24:42;;;;;;;867.10;805.20;;;;;;;7.82;69.59;101005.59;685294;28;136880;-63
2022/11/15 01:25:22;;;;;;;892.22;829.65;;;;;;;7.82;69.63;101005.59;686124;28;137879;-65
2022/11/15 01:26:04;;;;;;;901.40;838.45;;;;;;;7.83;69.67;100993.81;686068;28;137442;-65
2022/11/15 01:26:44;;;;;;;885.80;823.40;;;;;;;7.84;69.85;101000.88;685105;28;160712;-65
2022/11/15 01:27:24;;;;;;;887.33;824.40;;;;;;;7.84;69.73;101000.06;685573;28;136031;-65
2022/11/15 01:28:04;;;;;;;894.67;831.95;;;;;;;7.83;69.20;100996.50;683227;28;138320;-65
2022/11/15 01:28:45;;;;;;;890.58;827.88;;;;;;;7.80;68.46;100996.81;682821;28;135971;-65
2022/11/15 01:29:25;;;;;;;890.15;827.65;;;;;;;7.79;68.68;100996.94;683481;28;137735;-62
2022/11/15 01:30:08;;;;;;;919.65;856.25;;;;;;;7.73;68.34;100993.88;682603;28;160572;-64
2022/11/15 01:30:47;;;;;;;884.92;822.42;;;;;;;7.72;68.72;100986.81;683252;28;137684;-64
2022/11/15 01:31:27;;;;;;;906.78;843.63;;;;;;;7.75;68.98;100991.03;682674;28;160454;-65
2022/11/15 01:32:08;;;;;;;882.22;819.88;;;;;;;7.75;68.76;100991.03;685140;28;160474;-62
2022/11/15 01:32:48;;;;;;;905.92;842.85;;;;;;;7.74;69.00;100992.91;686083;28;138720;-65
2022/11/15 01:33:28;;;;;;;882.42;820.10;;;;;;;7.73;69.09;100993.88;686155;28;136098;-65
2022/11/15 01:34:19;;;;;;;882.08;819.88;;;;;;;7.74;69.29;100992.03;684086;28;117975;-65
2022/11/15 01:35:00;;;;;;;897.78;834.95;;;;;;;7.73;69.17;100993.03;683306;28;135782;-65
2022/11/15 01:35:40;;;;;;;906.60;843.50;;;;;;;7.72;69.29;100991.34;683412;28;137540;-65
2022/11/15 01:36:22;;;;;;;894.50;831.85;;;;;;;7.70;69.02;100991.50;686147;28;137740;-65
2022/11/15 01:37:02;;;;;;;907.65;844.33;;;;;;;7.70;69.21;100990.66;685485;28;137731;-66
2022/11/15 01:37:41;;;;;;;899.83;836.95;;;;;;;7.66;68.78;100987.41;685069;28;161757;-64
2022/11/15 01:38:22;;;;;;;889.17;826.63;;;;;;;7.64;69.17;100975.13;686008;28;135978;-65
2022/11/15 01:39:02;;;;;;;902.35;839.17;;;;;;;7.65;69.15;100983.06;679489;28;157274;-65
2022/11/15 01:39:43;;;;;;;886.80;824.35;;;;;;;7.60;69.31;100973.75;680752;28;137724;-65
2022/11/15 01:40:22;;;;;;;874.15;812.08;;;;;;;7.64;69.60;100978.66;680753;28;138750;-65
2022/11/15 01:41:03;;;;;;;895.78;832.90;;;;;;;7.64;69.61;100984.03;680733;28;137537;-65
2022/11/15 01:41:44;;;;;;;911.63;848.38;;;;;;;7.62;69.94;100982.50;680713;28;137489;-65
2022/11/15 01:42:24;;;;;;;899.47;836.47;;;;;;;7.63;69.64;100986.88;680557;28;135797;-65
2022/11/15 01:43:20;;;;;;;900.42;837.55;;;;;;;7.61;69.36;100983.50;680769;28;138411;-65
2022/11/15 01:44:33;;;;;;;894.65;831.95;;;;;;;7.56;69.00;100979.41;681882;28;180105;-65
2022/11/15 01:45:15;;;;;;;912.22;848.88;;;;;;;7.57;69.15;100974.91;683459;28;136000;-65
2022/11/15 01:45:59;;;;;;;900.85;837.97;;;;;;;7.55;69.03;100969.69;682605;28;161623;-65
2022/11/15 01:46:38;;;;;;;898.03;835.10;;;;;;;7.54;69.09;100970.66;684507;28;137672;-65
2022/11/15 01:47:21;;;;;;;887.58;824.80;;;;;;;7.52;69.61;100975.38;685384;28;137694;-65
2022/11/15 01:48:00;;;;;;;888.83;826.10;;;;;;;7.54;69.62;100967.16;685954;28;137545;-65
2022/11/15 01:48:42;;;;;;;903.20;839.95;;;;;;;7.54;69.45;100972.53;685275;28;137536;-65
2022/11/15 01:49:25;;;;;;;897.00;834.17;;;;;;;7.51;69.53;100962.06;685888;28;137739;-65
2022/11/15 01:50:11;;;;;;;898.55;835.72;;;;;;;7.50;69.36;100963.91;685814;28;135998;-65
2022/11/15 01:50:51;;;;;;;904.42;841.40;;;;;;;7.52;68.88;100964.63;685658;28;137510;-64
2022/11/15 01:51:32;;;;;;;896.58;833.83;;;;;;;7.51;69.18;100967.44;686092;28;137588;-64
2022/11/15 01:52:17;;;;;;;894.65;831.95;;;;;;;7.48;68.80;100957.00;686130;28;135981;-65
2022/11/15 01:52:57;;;;;;;896.13;833.40;;;;;;;7.45;68.71;100960.81;683307;28;137341;-65
2022/11/15 01:53:38;;;;;;;895.03;832.05;;;;;;;7.40;68.95;100957.75;682712;28;137814;-64
2022/11/15 01:54:20;;;;;;;899.00;836.03;;;;;;;7.40;69.38;100961.28;685171;28;137470;-65
2022/11/15 01:55:03;;;;;;;923.97;860.17;;;;;;;7.42;69.16;100966.50;684418;28;138531;-65
2022/11/15 01:55:45;;;;;;;886.58;824.05;;;;;;;7.44;69.51;100963.66;684110;28;137811;-64
2022/11/15 01:56:28;;;;;;;887.30;824.72;;;;;;;7.44;69.21;100963.66;683701;28;137730;-65
2022/11/15 01:57:11;;;;;;;901.17;838.28;;;;;;;7.44;68.91;100964.50;682630;28;137859;-65
2022/11/15 01:57:53;;;;;;;887.15;824.58;;;;;;;7.44;68.91;100959.13;684487;28;137544;-64
2022/11/15 01:58:34;;;;;;;873.20;811.15;;;;;;;7.45;69.13;100962.69;685372;28;137667;-65
2022/11/15 01:59:14;;;;;;;888.13;825.63;;;;;;;7.47;69.32;100958.00;686077;28;137556;-64
2022/11/15 01:59:54;;;;;;;894.70;831.83;;;;;;;7.47;70.01;100953.44;683243;28;137708;-65
2022/11/15 02:00:35;;;;;;;893.80;831.13;;;;;;;7.48;69.53;100957.84;683486;28;137522;-64
2022/11/15 02:01:15;;;;;;;885.92;823.42;;;;;;;7.50;69.83;100957.69;686097;28;135930;-62
2022/11/15 02:01:56;;;;;;;889.08;826.53;;;;;;;7.51;70.06;100948.63;686045;28;137646;-64
2022/11/15 02:02:36;;;;;;;875.75;813.65;;;;;;;7.53;70.26;100949.31;685903;28;137843;-64
2022/11/15 02:03:16;;;;;;;882.08;819.70;;;;;;;7.58;70.15;100949.69;685201;28;160725;-64
2022/11/15 02:03:59;;;;;;;889.75;827.20;;;;;;;7.58;70.25;100941.63;685466;28;150773;-65
2022/11/15 02:04:42;;;;;;;893.50;830.90;;;;;;;7.62;69.99;100945.72;686006;28;135993;-65
2022/11/15 02:05:23;;;;;;;900.55;837.65;;;;;;;7.62;70.13;100944.84;686028;28;138418;-65
2022/11/15 02:06:04;;;;;;;902.08;839.15;;;;;;;7.63;69.77;100950.06;683338;28;138531;-65
2022/11/15 02:06:45;;;;;;;888.30;825.72;;;;;;;7.64;69.68;100948.25;683246;28;136074;-65
2022/11/15 02:07:25;;;;;;;888.58;826.05;;;;;;;7.63;69.07;100949.25;683963;28;137506;-65
2022/11/15 02:08:07;;;;;;;882.83;820.38;;;;;;;7.61;69.31;100948.56;685987;28;137704;-65
2022/11/15 02:08:47;;;;;;;869.80;807.63;;;;;;;7.63;69.49;100951.94;685424;28;135984;-66
2022/11/15 02:09:27;;;;;;;893.22;830.55;;;;;;;7.62;69.51;100951.09;686057;28;137475;-66
2022/11/15 02:10:09;;;;;;;889.17;826.58;;;;;;;7.62;69.52;100947.53;686044;28;137496;-66
2022/11/15 02:10:49;;;;;;;874.95;812.70;;;;;;;7.58;69.35;100942.47;685459;28;138683;-65
2022/11/15 02:11:29;;;;;;;897.20;834.28;;;;;;;7.58;69.14;100947.84;683254;28;137704;-65
2022/11/15 02:12:11;;;;;;;875.60;813.35;;;;;;;7.55;68.96;100945.50;683299;28;138035;-64
2022/11/15 02:12:51;;;;;;;897.65;834.65;;;;;;;7.53;68.70;100944.78;684664;28;135988;-64
2022/11/15 02:13:30;;;;;;;887.25;824.75;;;;;;;7.53;68.55;100950.16;685165;28;160629;-64
2022/11/15 02:14:13;;;;;;;898.50;835.70;;;;;;;7.52;68.50;100948.50;685349;28;156229;-65
2022/11/15 02:14:54;;;;;;;890.92;828.25;;;;;;;7.48;68.69;100939.03;685860;28;137684;-65
2022/11/15 02:15:38;;;;;;;871.25;809.20;;;;;;;7.50;68.56;100944.25;685252;28;160634;-64
2022/11/15 02:16:28;;;;;;;897.75;834.88;;;;;;;7.49;68.48;100947.91;685919;28;137524;-64
2022/11/15 02:17:17;;;;;;;895.28;832.28;;;;;;;7.44;68.32;100934.94;685547;28;137730;-63
2022/11/15 02:18:10;;;;;;;885.60;823.10;;;;;;;7.45;68.50;100944.69;685549;28;135979;-65
2022/11/15 02:18:57;;;;;;;889.60;827.00;;;;;;;7.41;68.17;100937.94;685239;28;136049;-65
2022/11/15 02:20:05;;;;;;;870.63;808.65;;;;;;;7.42;68.30;100939.63;685958;28;136098;-65
2022/11/15 02:21:37;;;;;;;731.25;674.40;;;;;;;7.36;68.08;100943.75;709172;27;20754;-64
2022/11/15 02:22:27;;;;;;;863.47;801.95;;;;;;;7.35;68.41;100935.84;705068;27;135959;-65
2022/11/15 02:23:38;;;;;;;888.15;825.63;;;;;;;7.33;68.30;100940.53;703795;27;160543;-63
2022/11/15 02:24:41;;;;;;;906.45;843.40;;;;;;;7.26;68.29;100928.69;698557;28;157331;-64
2022/11/15 02:25:49;;;;;;;876.78;814.78;;;;;;;7.30;68.52;100936.28;696581;28;137445;-65
2022/11/15 02:26:51;;;;;;;913.95;850.80;;;;;;;7.27;68.52;100941.13;690271;28;136436;-66
2022/11/15 02:28:00;;;;;;;879.00;816.85;;;;;;;7.22;68.55;100938.91;696998;28;61550;-65
2022/11/15 02:28:45;;;;;;;860.42;798.95;;;;;;;7.21;68.44;100946.13;693406;28;136097;-63
2022/11/15 02:29:33;;;;;;;853.40;792.25;;;;;;;7.19;68.36;100941.88;693859;28;137767;-65
2022/11/15 02:30:26;;;;;;;861.08;799.55;;;;;;;7.16;68.30;100935.00;693818;28;137269;-66
2022/11/15 02:31:09;;;;;;;883.17;820.97;;;;;;;7.16;68.41;100944.88;693603;28;136489;-66
2022/11/15 02:31:54;;;;;;;882.28;820.08;;;;;;;7.15;68.30;100940.50;693665;28;137428;-65
2022/11/15 02:32:38;;;;;;;880.55;818.50;;;;;;;7.13;68.25;100943.34;693470;28;161519;-65
2022/11/15 02:33:27;;;;;;;912.47;849.38;;;;;;;7.12;68.21;100948.88;696387;28;137657;-65
2022/11/15 02:34:13;;;;;;;909.00;845.88;;;;;;;7.12;68.11;100947.00;695593;28;156171;-65
2022/11/15 02:34:58;;;;;;;908.55;845.47;;;;;;;7.13;68.39;100950.53;693649;28;137627;-65
2022/11/15 02:35:46;;;;;;;905.90;842.88;;;;;;;7.12;68.26;100946.19;693627;28;137914;-65
2022/11/15 02:36:34;;;;;;;902.50;839.63;;;;;;;7.08;68.15;100942.94;693781;28;136002;-65
2022/11/15 02:37:18;;;;;;;899.22;836.22;;;;;;;7.09;68.03;100949.16;693552;28;137248;-66
2022/11/15 02:37:59;;;;;;;888.60;826.13;;;;;;;7.03;67.95;100939.84;696563;28;137627;-65
2022/11/15 02:38:47;;;;;;;898.55;835.78;;;;;;;7.06;67.86;100949.47;696053;28;137814;-65
2022/11/15 02:39:34;;;;;;;894.78;832.22;;;;;;;7.03;68.13;100943.38;693632;28;136007;-65
2022/11/15 02:40:22;;;;;;;881.55;819.45;;;;;;;7.02;67.96;100944.38;693783;28;137860;-65
2022/11/15 02:41:05;;;;;;;902.45;839.55;;;;;;;6.99;68.14;100939.31;693782;28;137482;-65
2022/11/15 02:41:49;;;;;;;902.95;839.90;;;;;;;6.97;67.98;100933.22;693405;28;137789;-63
2022/11/15 02:44:37;;;;;;;895.47;832.83;;;;;;;6.92;68.26;100940.06;693070;28;156938;-63
2022/11/15 02:45:21;;;;;;;876.45;814.35;;;;;;;6.91;67.98;100943.72;693792;28;137531;-63
2022/11/15 02:46:06;;;;;;;869.95;808.22;;;;;;;6.84;68.24;100928.19;693403;28;137691;-64
2022/11/15 02:47:49;;;;;;;891.80;829.22;;;;;;;6.77;68.27;100927.13;693652;28;137368;-63
2022/11/15 02:48:32;;;;;;;891.83;829.20;;;;;;;6.81;68.27;100935.72;693013;28;160623;-63
2022/11/15 02:49:13;;;;;;;880.95;818.65;;;;;;;6.79;68.42;100930.50;693001;28;157150;-63
2022/11/15 02:49:55;;;;;;;888.42;825.88;;;;;;;6.80;68.57;100934.00;693661;28;137519;-64
2022/11/15 02:50:35;;;;;;;897.42;834.63;;;;;;;6.79;68.69;100935.84;694926;28;137690;-63
2022/11/15 02:51:16;;;;;;;898.97;836.17;;;;;;;6.80;68.66;100931.31;696509;28;137538;-63
2022/11/15 02:51:56;;;;;;;890.03;827.50;;;;;;;6.80;68.08;100928.66;696399;28;138069;-63
2022/11/15 02:52:37;;;;;;;892.88;830.25;;;;;;;6.81;68.72;100931.19;696483;28;135969;-63
2022/11/15 02:53:17;;;;;;;888.10;825.55;;;;;;;6.82;68.64;100932.03;696499;28;137588;-63
2022/11/15 02:53:57;;;;;;;906.95;843.83;;;;;;;6.82;68.36;100935.56;693727;28;157314;-64
2022/11/15 02:54:37;;;;;;;886.35;823.85;;;;;;;6.82;68.73;100922.16;694915;28;137819;-63
2022/11/15 02:55:29;;;;;;;889.28;826.78;;;;;;;6.80;68.51;100923.28;696492;28;138178;-63
2022/11/15 02:56:09;;;;;;;891.45;828.75;;;;;;;6.84;68.54;100928.19;693667;28;137567;-63
2022/11/15 02:56:50;;;;;;;879.60;817.38;;;;;;;6.83;68.61;100922.97;693719;28;137752;-63
2022/11/15 02:57:45;;;;;;;890.17;827.55;;;;;;;6.81;68.46;100925.81;693649;28;137457;-63
2022/11/15 02:58:42;;;;;;;908.95;845.95;;;;;;;6.83;68.32;100929.22;693574;28;137256;-63
2022/11/15 02:59:53;;;;;;;898.70;835.83;;;;;;;6.79;68.30;100921.59;695637;28;81335;-63
2022/11/15 03:00:36;;;;;;;888.15;825.58;;;;;;;6.76;68.35;100920.06;693655;28;137541;-64
2022/11/15 03:01:24;;;;;;;879.95;817.65;;;;;;;6.75;68.45;100926.41;693524;28;137694;-65
2022/11/15 03:02:17;;;;;;;879.83;817.55;;;;;;;6.73;68.32;100920.34;695609;28;137777;-64
2022/11/15 03:03:19;;;;;;;878.38;816.20;;;;;;;6.68;68.33;100915.41;696437;28;137696;-63
2022/11/15 03:04:08;;;;;;;889.13;826.63;;;;;;;6.73;68.45;100919.50;688845;28;157180;-65
2022/11/15 03:04:54;;;;;;;881.90;819.70;;;;;;;6.73;68.22;100917.66;696369;28;136842;-65
2022/11/15 03:05:38;;;;;;;889.10;826.50;;;;;;;6.73;68.31;100916.81;696306;28;138328;-65
2022/11/15 03:06:26;;;;;;;882.90;820.55;;;;;;;6.73;68.45;100916.81;696498;28;136005;-64
2022/11/15 03:07:12;;;;;;;884.88;822.35;;;;;;;6.71;68.35;100918.78;693144;28;138006;-63
2022/11/15 03:08:01;;;;;;;865.15;803.42;;;;;;;6.70;68.06;100912.59;692905;28;160102;-64
2022/11/15 03:08:51;;;;;;;881.78;819.45;;;;;;;6.71;68.41;100918.78;693139;28;137890;-65
2022/11/15 03:09:34;;;;;;;887.10;824.58;;;;;;;6.69;68.36;100924.31;696276;28;60861;-65
2022/11/15 03:10:20;;;;;;;899.13;836.25;;;;;;;6.67;68.11;100910.19;693663;28;137663;-64
2022/11/15 03:11:04;;;;;;;887.42;824.97;;;;;;;6.65;68.20;100914.88;693400;28;137547;-66
2022/11/15 03:11:46;;;;;;;880.10;817.78;;;;;;;6.65;67.87;100922.94;694318;28;160632;-65
2022/11/15 03:12:31;;;;;;;874.60;812.45;;;;;;;6.63;68.19;100920.38;697617;28;104937;-64
2022/11/15 03:13:19;;;;;;;883.47;821.03;;;;;;;6.63;68.22;100925.75;696430;28;137415;-66
2022/11/15 03:14:04;;;;;;;886.78;824.17;;;;;;;6.63;68.45;100920.38;694791;28;180095;-66
2022/11/15 03:14:49;;;;;;;890.83;828.20;;;;;;;6.63;68.28;100920.38;696431;28;135774;-65
2022/11/15 03:15:32;;;;;;;900.30;837.40;;;;;;;6.63;68.25;100923.06;695684;28;160334;-65
2022/11/15 03:16:17;;;;;;;885.63;823.03;;;;;;;6.63;68.15;100920.38;696165;28;138148;-66